Time;durP1;ratioP1;P1;durP2;ratioP2;P2;SDS_P1;SDS_P2;PMS_P1;PMS_P2;Temp;Humidity;BMP_temperature;BMP_pressure;BME280_temperature;BME280_humidity;BME280_pressure;Samples;Min_cycle;Max_cycle;Signal;HPM_P1;HPM_P2
2022/06/21 00:02:25;;;;;;;8.02;2.70;;;17.80;80.10;;;;;;5011765;28;20022;-89
2022/06/21 00:04:51;;;;;;;7.47;2.30;;;17.70;80.20;;;;;;4995423;28;20045;-89
2022/06/21 00:07:24;;;;;;;7.13;2.30;;;17.70;80.80;;;;;;4995691;28;20026;-89
2022/06/21 00:09:50;;;;;;;8.35;2.92;;;17.70;81.00;;;;;;5012265;28;20030;-90
2022/06/21 00:12:17;;;;;;;10.23;2.88;;;17.60;81.00;;;;;;5012899;28;20113;-89
2022/06/21 00:14:43;;;;;;;8.45;2.35;;;17.60;81.20;;;;;;4996562;28;20040;-89
2022/06/21 00:17:21;;;;;;;7.28;2.28;;;17.50;81.50;;;;;;5011664;28;20065;-88
2022/06/21 00:19:47;;;;;;;8.77;2.50;;;17.50;81.70;;;;;;4995506;28;20034;-89
2022/06/21 00:22:19;;;;;;;8.80;2.53;;;17.50;81.90;;;;;;4996156;28;20014;-89
2022/06/21 00:24:44;;;;;;;7.70;2.58;;;17.50;82.20;;;;;;5012198;28;20033;-88
2022/06/21 00:27:16;;;;;;;6.95;2.28;;;17.40;82.20;;;;;;4996179;28;20030;-89
2022/06/21 00:29:43;;;;;;;7.95;2.30;;;17.40;82.40;;;;;;5013284;28;20022;-89
2022/06/21 00:32:14;;;;;;;8.55;2.80;;;17.40;82.70;;;;;;4995910;28;20022;-88
2022/06/21 00:34:41;;;;;;;8.95;2.20;;;17.40;83.10;;;;;;5098089;28;20026;-88
2022/06/21 00:37:20;;;;;;;6.38;1.90;;;17.30;83.30;;;;;;4982163;28;20096;-89
2022/06/21 00:39:46;;;;;;;11.27;2.90;;;17.30;83.40;;;;;;5011733;28;20076;-88
2022/06/21 00:42:21;;;;;;;7.07;2.05;;;17.30;83.50;;;;;;5011878;28;20026;-89
2022/06/21 00:45:19;;;;;;;7.18;2.08;;;17.20;83.70;;;;;;5019238;28;20086;-90
2022/06/21 00:47:53;;;;;;;5.57;2.08;;;17.20;83.60;;;;;;5014632;28;20034;-90
2022/06/21 00:50:27;;;;;;;7.43;2.40;;;17.10;83.50;;;;;;5098046;28;20050;-89
2022/06/21 00:53:17;;;;;;;7.45;2.08;;;17.10;83.60;;;;;;5011155;28;20030;-89
2022/06/21 00:56:13;;;;;;;7.70;2.08;;;17.00;83.70;;;;;;5009916;28;20029;-89
2022/06/21 01:02:06;;;;;;;9.18;2.70;;;16.90;84.30;;;;;;5010894;28;20033;-89
2022/06/21 01:04:42;;;;;;;8.15;2.50;;;16.80;84.20;;;;;;4994530;28;20157;-89
2022/06/21 01:07:11;;;;;;;10.00;2.65;;;16.80;84.40;;;;;;5002113;28;20029;-89
2022/06/21 01:09:49;;;;;;;5.90;2.35;;;16.70;84.60;;;;;;5079743;28;20027;-89
2022/06/21 01:12:23;;;;;;;5.72;2.47;;;16.70;84.80;;;;;;5010579;28;20021;-89
2022/06/21 01:15:01;;;;;;;7.57;2.33;;;16.60;85.20;;;;;;5012042;28;20022;-89
2022/06/21 01:17:29;;;;;;;6.10;2.75;;;16.60;85.80;;;;;;5010647;28;20432;-89
2022/06/21 01:20:02;;;;;;;9.57;2.60;;;16.60;86.50;;;;;;5014914;28;20026;-89
2022/06/21 01:22:47;;;;;;;6.13;2.08;;;16.50;86.20;;;;;;5013996;28;20041;-89
2022/06/21 01:25:25;;;;;;;7.20;2.45;;;16.50;86.70;;;;;;5014103;28;20468;-89
2022/06/21 01:27:55;;;;;;;7.22;2.53;;;16.50;87.10;;;;;;5030300;28;20064;-89
2022/06/21 01:30:22;;;;;;;8.70;2.75;;;16.40;87.10;;;;;;5013986;28;20070;-89
2022/06/21 01:32:49;;;;;;;6.95;2.58;;;16.40;87.40;;;;;;5013717;28;20032;-89
2022/06/21 01:35:52;;;;;;;8.27;2.63;;;16.40;87.40;;;;;;5004493;28;20046;-89
2022/06/21 01:38:23;;;;;;;9.77;2.55;;;16.30;87.50;;;;;;5005841;28;20054;-89
2022/06/21 01:40:52;;;;;;;7.05;2.17;;;16.30;87.50;;;;;;5011487;28;20019;-89
2022/06/21 01:43:23;;;;;;;5.97;2.13;;;16.30;87.70;;;;;;5004598;28;20055;-89
2022/06/21 01:45:53;;;;;;;4.13;1.80;;;16.20;87.70;;;;;;4998549;28;20110;-89
2022/06/21 01:48:24;;;;;;;;;;;16.20;87.90;;;;;;4997873;28;20393;-89
2022/06/21 01:50:54;;;;;;;8.00;2.47;;;16.20;88.40;;;;;;5020205;28;19943;-90
2022/06/21 01:53:23;;;;;;;8.02;2.20;;;16.20;88.50;;;;;;5020720;28;20057;-90
2022/06/21 01:56:00;;;;;;;6.22;2.17;;;16.10;88.90;;;;;;5012276;28;20068;-89
2022/06/21 01:58:30;;;;;;;6.03;2.25;;;16.10;89.40;;;;;;5023672;28;20055;-89
2022/06/21 02:01:01;;;;;;;7.15;2.55;;;16.10;89.60;;;;;;5021016;28;20074;-89
2022/06/21 02:03:34;;;;;;;7.30;2.40;;;16.10;89.80;;;;;;5089246;28;20018;-89
2022/06/21 02:06:12;;;;;;;8.05;2.13;;;16.00;89.70;;;;;;5013287;28;20041;-89
2022/06/21 02:09:03;;;;;;;5.50;2.08;;;16.00;89.70;;;;;;5013288;28;20026;-89
2022/06/21 02:11:36;;;;;;;5.82;2.28;;;16.00;89.90;;;;;;5003728;28;20026;-89
2022/06/21 02:16:53;;;;;;;7.43;3.00;;;15.80;90.00;;;;;;5002624;28;20058;-89
2022/06/21 02:19:34;;;;;;;9.63;2.30;;;15.80;90.10;;;;;;5085925;28;20018;-89
2022/06/21 02:21:59;;;;;;;;;;;15.70;90.50;;;;;;5021681;28;20026;-89
2022/06/21 02:24:28;;;;;;;5.22;2.20;;;15.70;90.40;;;;;;5013630;28;20005;-89
2022/06/21 02:26:56;;;;;;;9.60;2.83;;;15.70;90.40;;;;;;4994324;28;20030;-89
2022/06/21 02:29:22;;;;;;;5.43;2.42;;;15.60;90.50;;;;;;5009019;28;20049;-89
2022/06/21 02:31:49;;;;;;;4.47;1.90;;;15.60;90.50;;;;;;4996482;28;20034;-89
2022/06/21 02:34:24;;;;;;;7.35;2.30;;;15.50;90.40;;;;;;5012974;28;20120;-88
2022/06/21 02:36:57;;;;;;;7.68;2.30;;;15.40;90.50;;;;;;5012523;28;20026;-88
2022/06/21 02:39:26;;;;;;;6.75;2.67;;;15.40;90.60;;;;;;5012698;28;20079;-89
2022/06/21 02:42:11;;;;;;;4.95;2.00;;;15.30;90.80;;;;;;5012673;28;20057;-89
2022/06/21 02:44:51;;;;;;;7.22;2.15;;;15.30;91.10;;;;;;5012371;28;20022;-89
2022/06/21 02:47:40;;;;;;;5.28;2.10;;;15.30;91.30;;;;;;5013747;28;20457;-89
2022/06/21 02:50:39;;;;;;;4.70;1.98;;;15.20;91.60;;;;;;5013377;28;20014;-89
2022/06/21 02:53:14;;;;;;;8.75;2.72;;;15.20;91.90;;;;;;5012416;28;20424;-89
2022/06/21 02:55:52;;;;;;;10.18;2.50;;;15.20;91.80;;;;;;5012498;28;20030;-89
2022/06/21 02:58:38;;;;;;;7.53;2.90;;;15.20;91.80;;;;;;5015763;28;20048;-89
2022/06/21 03:01:12;;;;;;;5.80;2.53;;;15.10;92.00;;;;;;5019782;28;20048;-89
2022/06/21 03:03:38;;;;;;;11.07;2.70;;;15.10;92.10;;;;;;5012428;28;20018;-89
2022/06/21 03:06:07;;;;;;;4.88;2.70;;;15.00;92.20;;;;;;4995824;28;20558;-89
2022/06/21 03:08:35;;;;;;;6.38;2.60;;;15.00;92.50;;;;;;5013491;28;20079;-90
2022/06/21 03:11:01;;;;;;;6.70;2.80;;;15.10;92.70;;;;;;5012066;28;20049;-90
2022/06/21 03:13:34;;;;;;;7.78;2.28;;;15.00;92.80;;;;;;4995738;28;20052;-89
2022/06/21 03:16:04;;;;;;;8.20;2.80;;;15.00;93.00;;;;;;5010472;28;20030;-88
2022/06/21 03:18:35;;;;;;;6.63;2.67;;;15.00;93.30;;;;;;5011890;28;20021;-89
2022/06/21 03:21:03;;;;;;;7.57;2.92;;;15.00;93.60;;;;;;5011902;28;20032;-89
2022/06/21 03:23:29;;;;;;;5.20;2.40;;;15.00;93.70;;;;;;5011780;28;20029;-89
2022/06/21 03:26:02;;;;;;;10.45;2.95;;;15.00;93.70;;;;;;4995441;28;20022;-89
2022/06/21 03:28:31;;;;;;;7.18;2.53;;;15.00;93.80;;;;;;5012823;28;20033;-89
2022/06/21 03:31:15;;;;;;;7.78;2.33;;;15.00;94.00;;;;;;5008929;28;20033;-89
2022/06/21 03:33:47;;;;;;;10.90;3.15;;;15.00;94.20;;;;;;5009477;28;20026;-89
2022/06/21 03:36:18;;;;;;;7.32;2.50;;;15.00;94.40;;;;;;5011481;28;20014;-89
2022/06/21 03:39:10;;;;;;;9.10;2.78;;;15.00;94.40;;;;;;5011571;28;20049;-89
2022/06/21 03:41:44;;;;;;;;;;;15.00;94.60;;;;;;4999515;28;20042;-89
2022/06/21 03:44:30;;;;;;;8.15;3.17;;;15.00;95.00;;;;;;5015130;28;20363;-88
2022/06/21 03:47:41;;;;;;;7.60;2.83;;;14.90;95.00;;;;;;5011310;28;20038;-89
2022/06/21 03:50:27;;;;;;;6.70;3.15;;;15.00;95.40;;;;;;5059785;28;20066;-90
2022/06/21 03:53:02;;;;;;;9.10;2.90;;;15.00;95.50;;;;;;5023998;28;20030;-89
2022/06/21 03:55:34;;;;;;;6.32;2.80;;;14.90;95.60;;;;;;5011285;28;20030;-89
2022/06/21 03:58:11;;;;;;;8.13;3.20;;;14.90;95.80;;;;;;5027378;28;20048;-89
2022/06/21 04:00:45;;;;;;;6.15;2.67;;;14.90;95.90;;;;;;5011134;28;20030;-89
2022/06/21 04:03:35;;;;;;;8.25;3.15;;;14.90;95.90;;;;;;5011242;28;20040;-90
2022/06/21 04:06:05;;;;;;;10.90;3.03;;;14.90;96.00;;;;;;5011264;28;20045;-90
2022/06/21 04:08:45;;;;;;;7.28;3.20;;;15.00;96.10;;;;;;5010946;28;20838;-89
2022/06/21 04:11:27;;;;;;;10.82;3.33;;;14.90;96.20;;;;;;5010883;28;20033;-90
2022/06/21 04:14:04;;;;;;;7.47;3.08;;;14.90;96.30;;;;;;4998126;28;20022;-89
2022/06/21 04:16:43;;;;;;;6.28;2.97;;;14.90;96.40;;;;;;5010981;28;20076;-89
2022/06/21 04:19:27;;;;;;;7.60;2.90;;;14.90;96.40;;;;;;5016242;28;20023;-89
2022/06/21 04:22:12;;;;;;;6.78;3.35;;;14.90;96.50;;;;;;5007805;28;20018;-89
2022/06/21 04:24:41;;;;;;;9.43;3.45;;;14.90;96.70;;;;;;5011522;28;20467;-89
2022/06/21 04:27:19;;;;;;;7.00;3.15;;;14.90;96.90;;;;;;5011394;28;20089;-89
2022/06/21 04:30:05;;;;;;;8.18;3.95;;;14.90;97.00;;;;;;5011414;28;20018;-90
2022/06/21 04:32:33;;;;;;;9.27;3.53;;;14.90;97.10;;;;;;5011577;28;20052;-89
2022/06/21 04:35:12;;;;;;;6.38;3.08;;;14.90;97.10;;;;;;5008439;28;20053;-89
2022/06/21 04:37:55;;;;;;;7.95;3.20;;;14.90;97.30;;;;;;5013353;28;20117;-89
2022/06/21 04:40:52;;;;;;;6.95;3.30;;;14.80;97.20;;;;;;5023284;28;20018;-89
2022/06/21 04:43:51;;;;;;;7.53;3.53;;;14.80;97.30;;;;;;5024763;28;20018;-90
2022/06/21 04:46:35;;;;;;;11.85;3.78;;;14.80;97.60;;;;;;5013084;28;20061;-90
2022/06/21 04:49:13;;;;;;;7.53;3.78;;;14.70;97.80;;;;;;5018497;28;20105;-90
2022/06/21 04:52:22;;;;;;;9.85;3.72;;;14.70;98.10;;;;;;5030017;28;20046;-90
2022/06/21 04:54:48;;;;;;;9.80;3.58;;;14.80;98.30;;;;;;5025009;28;20038;-89
2022/06/21 04:57:25;;;;;;;10.60;3.60;;;14.80;98.50;;;;;;4998039;28;20022;-90
2022/06/21 04:59:55;;;;;;;9.45;3.25;;;14.80;98.70;;;;;;5015230;28;20467;-89
2022/06/21 05:02:22;;;;;;;10.27;3.35;;;14.80;98.80;;;;;;5016352;28;20036;-90
2022/06/21 05:04:55;;;;;;;7.47;2.90;;;14.80;99.00;;;;;;5017408;28;20379;-90
2022/06/21 05:07:25;;;;;;;9.60;3.30;;;14.90;99.10;;;;;;5022621;28;20026;-90
2022/06/21 05:09:54;;;;;;;6.00;2.67;;;14.90;99.20;;;;;;5101148;28;20021;-89
2022/06/21 05:12:30;;;;;;;9.18;3.38;;;14.90;99.30;;;;;;5014650;28;20030;-85
2022/06/21 05:15:04;;;;;;;5.97;2.35;;;15.00;99.40;;;;;;5010121;28;20030;-87
2022/06/21 05:17:33;;;;;;;8.40;2.90;;;15.00;99.50;;;;;;5006007;28;20119;-86
2022/06/21 05:20:03;;;;;;;7.97;3.03;;;15.00;99.50;;;;;;5013024;28;20021;-86
2022/06/21 05:22:34;;;;;;;7.78;2.50;;;15.10;99.60;;;;;;5011302;28;20463;-87
2022/06/21 05:25:01;;;;;;;5.15;2.10;;;15.10;99.60;;;;;;5024780;28;20412;-87
2022/06/21 05:28:05;;;;;;;6.95;2.47;;;15.10;99.70;;;;;;4996088;28;20544;-84
2022/06/21 05:30:34;;;;;;;6.72;2.38;;;15.20;99.70;;;;;;4995510;28;20034;-85
2022/06/21 05:33:07;;;;;;;7.43;2.60;;;15.20;99.80;;;;;;5012468;28;20493;-90
2022/06/21 05:35:33;;;;;;;8.48;2.65;;;15.30;99.90;;;;;;5029154;28;20432;-89
2022/06/21 05:38:06;;;;;;;8.82;3.55;;;15.30;99.90;;;;;;4991987;28;20073;-89
2022/06/21 05:40:43;;;;;;;8.63;3.00;;;15.30;99.90;;;;;;5002459;28;20105;-89
2022/06/21 05:43:34;;;;;;;8.48;3.15;;;15.40;99.90;;;;;;5016511;28;20028;-89
2022/06/21 05:46:04;;;;;;;7.55;3.10;;;15.40;99.90;;;;;;5012136;28;20044;-89
2022/06/21 05:48:32;;;;;;;8.27;2.80;;;15.40;99.90;;;;;;5012777;28;20121;-89
2022/06/21 05:51:00;;;;;;;7.80;2.28;;;15.50;99.90;;;;;;4993646;28;20122;-89
2022/06/21 05:53:39;;;;;;;6.68;2.10;;;15.50;99.90;;;;;;4999878;28;20034;-89
2022/06/21 05:56:31;;;;;;;8.13;1.98;;;15.50;99.90;;;;;;5095286;28;20048;-89
2022/06/21 05:59:02;;;;;;;4.53;1.92;;;15.60;99.90;;;;;;5023920;28;20049;-90
2022/06/21 06:01:47;;;;;;;5.07;1.98;;;15.60;99.90;;;;;;5012917;28;20018;-89
2022/06/21 06:04:15;;;;;;;11.45;2.38;;;15.60;99.90;;;;;;5019555;28;20113;-88
2022/06/21 06:06:43;;;;;;;5.75;2.22;;;15.70;99.90;;;;;;5028693;28;20059;-88
2022/06/21 06:09:16;;;;;;;6.63;2.45;;;15.70;99.90;;;;;;5012002;28;20018;-88
2022/06/21 06:11:57;;;;;;;6.95;2.53;;;15.70;99.90;;;;;;5012624;28;20030;-88
2022/06/21 06:14:31;;;;;;;6.93;2.75;;;15.80;99.90;;;;;;5011881;28;20018;-87
2022/06/21 06:16:59;;;;;;;7.38;2.53;;;15.80;99.90;;;;;;5012272;28;20030;-88
2022/06/21 06:19:33;;;;;;;6.60;2.22;;;15.90;99.90;;;;;;5012143;28;20041;-88
2022/06/21 06:22:06;;;;;;;5.90;2.45;;;15.90;99.90;;;;;;5011911;28;20029;-88
2022/06/21 06:24:44;;;;;;;7.20;2.58;;;16.00;99.90;;;;;;5012240;28;20492;-88
2022/06/21 06:27:38;;;;;;;5.05;2.13;;;16.00;99.90;;;;;;5011176;28;20050;-88
2022/06/21 06:30:06;;;;;;;6.45;2.80;;;16.10;99.90;;;;;;5014795;28;20363;-85
2022/06/21 06:32:45;;;;;;;7.32;2.67;;;16.10;99.90;;;;;;5096564;28;20018;-85
2022/06/21 06:35:25;;;;;;;7.32;2.17;;;16.20;99.90;;;;;;5087892;28;20026;-89
2022/06/21 06:37:52;;;;;;;7.68;2.60;;;16.20;99.80;;;;;;5085873;28;20124;-89
2022/06/21 06:40:30;;;;;;;7.85;2.53;;;16.30;99.60;;;;;;5047283;28;20020;-89
2022/06/21 06:43:11;;;;;;;6.97;2.08;;;16.40;99.50;;;;;;5021908;28;20057;-89
2022/06/21 06:45:40;;;;;;;7.47;2.42;;;16.40;99.30;;;;;;5012879;28;20026;-89
2022/06/21 06:48:18;;;;;;;5.38;2.00;;;16.50;99.20;;;;;;5033724;28;20032;-89
2022/06/21 06:51:03;;;;;;;7.13;2.47;;;16.50;99.10;;;;;;5045975;28;20072;-90
2022/06/21 06:53:51;;;;;;;5.82;2.25;;;16.60;99.10;;;;;;5061864;27;20494;-88
2022/06/21 06:56:27;;;;;;;5.95;2.00;;;16.60;98.90;;;;;;5009390;28;20015;-88
2022/06/21 06:59:03;;;;;;;7.93;2.13;;;16.70;98.90;;;;;;5004044;28;20022;-88
2022/06/21 07:01:45;;;;;;;7.93;2.38;;;16.80;98.70;;;;;;5012658;28;20026;-85
2022/06/21 07:04:16;;;;;;;5.70;1.90;;;16.80;98.40;;;;;;5025061;28;20425;-85
2022/06/21 07:06:56;;;;;;;;;;;16.90;98.30;;;;;;5013128;28;20467;-85
2022/06/21 07:09:56;;;;;;;6.40;2.20;;;17.00;98.20;;;;;;5023316;28;19913;-84
2022/06/21 07:12:28;;;;;;;6.50;1.73;;;17.00;97.90;;;;;;5058461;28;20039;-84
2022/06/21 07:14:56;;;;;;;3.97;1.90;;;17.00;97.40;;;;;;5012154;28;20026;-90
2022/06/21 07:17:32;;;;;;;4.70;1.73;;;17.10;97.40;;;;;;5011863;28;20026;-90
2022/06/21 07:19:59;;;;;;;5.35;1.90;;;17.10;97.20;;;;;;5014521;28;20014;-85
2022/06/21 07:22:31;;;;;;;5.45;1.60;;;17.20;97.00;;;;;;5010690;28;20515;-85
2022/06/21 07:25:23;;;;;;;3.65;1.42;;;17.30;97.30;;;;;;5008223;28;20029;-84
2022/06/21 07:27:55;;;;;;;6.35;2.08;;;17.40;97.10;;;;;;5004099;28;20040;-85
2022/06/21 07:30:26;;;;;;;6.82;2.10;;;17.50;96.90;;;;;;5017513;28;20033;-84
2022/06/21 07:32:57;;;;;;;4.35;1.80;;;17.50;96.60;;;;;;5019256;28;20022;-84
2022/06/21 07:35:36;;;;;;;5.97;1.90;;;17.60;96.40;;;;;;5012198;28;20075;-85
2022/06/21 07:38:09;;;;;;;7.57;2.33;;;17.70;96.30;;;;;;5010330;28;20032;-84
2022/06/21 07:40:46;;;;;;;7.55;1.90;;;17.80;96.10;;;;;;5010288;28;20022;-85
2022/06/21 07:43:47;;;;;;;6.20;1.45;;;17.80;95.10;;;;;;5011450;28;20026;-85
2022/06/21 07:46:23;;;;;;;3.28;1.30;;;17.90;93.70;;;;;;5004152;28;20046;-84
2022/06/21 07:48:59;;;;;;;3.05;1.33;;;17.90;93.60;;;;;;5008659;28;20018;-84
2022/06/21 07:51:39;;;;;;;4.50;1.70;;;18.00;93.30;;;;;;5007956;28;20503;-84
2022/06/21 07:54:07;;;;;;;6.63;1.75;;;18.00;93.00;;;;;;5007891;28;20071;-84
2022/06/21 07:56:44;;;;;;;7.43;1.55;;;18.10;92.80;;;;;;5000607;28;20032;-91
2022/06/21 07:59:22;;;;;;;4.22;1.25;;;18.20;92.90;;;;;;5011666;28;20072;-88
2022/06/21 08:07:51;;;;;;;6.10;1.50;;;18.50;92.90;;;;;;5024445;28;20037;-90
2022/06/21 08:13:40;;;;;;;6.82;1.35;;;18.60;92.30;;;;;;5007175;28;20428;-92
2022/06/21 08:16:12;;;;;;;15.32;1.65;;;18.70;92.00;;;;;;4994830;28;20455;-91
2022/06/21 08:18:49;;;;;;;5.93;1.73;;;18.80;92.10;;;;;;5011801;28;20026;-92
2022/06/21 08:21:23;;;;;;;5.28;1.30;;;18.80;92.10;;;;;;5020963;28;20018;-91
2022/06/21 08:24:12;;;;;;;4.75;1.30;;;18.90;91.90;;;;;;5011328;28;20022;-92
2022/06/21 08:26:46;;;;;;;5.13;1.42;;;19.00;91.80;;;;;;5000825;28;20022;-91
2022/06/21 08:29:24;;;;;;;5.65;1.50;;;19.10;91.70;;;;;;5012606;28;20435;-91
2022/06/21 08:31:58;;;;;;;2.03;0.95;;;19.20;91.60;;;;;;5061402;28;20375;-90
2022/06/21 08:34:44;;;;;;;12.48;1.98;;;19.20;91.20;;;;;;5028363;28;20022;-89
2022/06/21 08:37:25;;;;;;;5.40;1.50;;;19.30;90.70;;;;;;5008173;28;20454;-89
2022/06/21 08:40:07;;;;;;;;;;;19.30;90.20;;;;;;5011134;28;20147;-89
2022/06/21 08:42:44;;;;;;;5.43;1.17;;;19.40;90.30;;;;;;5009143;28;20282;-90
2022/06/21 08:45:40;;;;;;;5.88;1.30;;;19.50;90.40;;;;;;5090666;28;20030;-89
2022/06/21 08:48:26;;;;;;;4.55;1.35;;;19.50;90.40;;;;;;5012039;28;20104;-89
2022/06/21 08:51:04;;;;;;;7.78;1.20;;;19.60;88.80;;;;;;5009789;28;20054;-89
2022/06/21 08:53:36;;;;;;;5.47;2.30;;;19.70;87.90;;;;;;5010729;28;20050;-89
2022/06/21 08:56:08;;;;;;;4.70;1.20;;;19.80;86.90;;;;;;5009523;28;20056;-89
2022/06/21 08:59:11;;;;;;;5.05;1.20;;;19.80;85.80;;;;;;5012106;28;20025;-89
2022/06/21 09:02:06;;;;;;;3.38;1.48;;;19.90;84.90;;;;;;5018718;28;20026;-90
2022/06/21 09:05:10;;;;;;;7.68;1.50;;;19.90;85.10;;;;;;5030192;28;20442;-91
2022/06/21 09:07:54;;;;;;;6.18;1.30;;;20.00;84.60;;;;;;5019020;28;20010;-90
2022/06/21 09:10:38;;;;;;;4.53;1.45;;;20.10;84.90;;;;;;5022491;28;20037;-90
2022/06/21 09:13:24;;;;;;;3.45;1.15;;;20.10;83.10;;;;;;5028853;28;20026;-90
2022/06/21 09:16:01;;;;;;;3.15;1.02;;;20.20;83.30;;;;;;5011399;28;20030;-90
2022/06/21 09:18:36;;;;;;;3.92;1.00;;;20.20;83.90;;;;;;5027288;28;20032;-90
2022/06/21 09:21:20;;;;;;;3.92;1.30;;;20.30;84.60;;;;;;5068055;28;20027;-90
2022/06/21 09:24:14;;;;;;;3.97;1.00;;;20.40;84.40;;;;;;5069990;28;20024;-90
2022/06/21 09:26:49;;;;;;;2.25;0.80;;;20.50;83.70;;;;;;5016633;28;20591;-90
2022/06/21 09:29:27;;;;;;;3.97;0.80;;;20.60;83.50;;;;;;5008898;28;20014;-88
2022/06/21 09:35:39;;;;;;;4.07;1.08;;;20.70;81.70;;;;;;5010400;28;20033;-90
2022/06/21 09:38:26;;;;;;;2.78;0.90;;;20.80;81.50;;;;;;5001322;28;20117;-89
2022/06/21 09:40:57;;;;;;;7.47;0.90;;;20.90;81.20;;;;;;5015489;28;20369;-90
2022/06/21 09:43:39;;;;;;;4.80;0.93;;;20.90;81.40;;;;;;5031080;28;20026;-89
2022/06/21 09:46:21;;;;;;;2.95;0.70;;;21.00;81.10;;;;;;5026226;28;20099;-89
2022/06/21 09:48:57;;;;;;;3.97;0.80;;;21.00;80.10;;;;;;5013626;28;20120;-89
2022/06/21 09:51:26;;;;;;;2.03;0.70;;;21.00;79.00;;;;;;5029861;28;20042;-90
2022/06/21 09:54:21;;;;;;;1.80;0.60;;;21.10;78.80;;;;;;5013793;28;20022;-86
2022/06/21 09:56:54;;;;;;;1.63;0.60;;;21.10;78.80;;;;;;5013135;28;20054;-85
2022/06/21 09:59:38;;;;;;;2.78;0.75;;;21.20;77.20;;;;;;5005556;28;20525;-86
2022/06/21 10:02:16;;;;;;;4.25;1.38;;;21.20;76.50;;;;;;5025614;28;20038;-86
2022/06/21 10:05:14;;;;;;;3.70;1.00;;;21.20;76.40;;;;;;5019959;28;20394;-86
2022/06/21 10:08:14;;;;;;;2.92;1.00;;;21.20;76.50;;;;;;5028424;28;20079;-83
2022/06/21 10:11:20;;;;;;;3.80;1.30;;;21.30;77.00;;;;;;5026453;28;20029;-88
2022/06/21 10:14:07;;;;;;;5.82;1.45;;;21.30;77.40;;;;;;5099337;28;20022;-89
2022/06/21 10:16:41;;;;;;;3.35;1.30;;;21.40;77.70;;;;;;5010719;28;20018;-89
2022/06/21 10:19:44;;;;;;;5.88;1.55;;;21.50;77.50;;;;;;5011348;28;20070;-89
2022/06/21 10:22:19;;;;;;;3.85;1.33;;;21.50;76.90;;;;;;5014297;28;20037;-89
2022/06/21 10:25:09;;;;;;;5.13;1.35;;;21.60;76.90;;;;;;5013187;28;20022;-89
2022/06/21 10:27:41;;;;;;;4.63;1.23;;;21.60;77.30;;;;;;5012905;28;20033;-89
2022/06/21 10:30:43;;;;;;;3.20;1.23;;;21.60;77.60;;;;;;5028970;28;20061;-89
2022/06/21 10:33:34;;;;;;;2.92;1.30;;;21.70;77.90;;;;;;5012428;28;20033;-89
2022/06/21 10:36:34;;;;;;;2.45;1.20;;;21.80;77.70;;;;;;5013394;28;20103;-88
2022/06/21 10:39:33;;;;;;;5.40;1.92;;;21.80;77.30;;;;;;5015097;28;20122;-87
2022/06/21 10:42:46;;;;;;;3.40;1.33;;;21.90;78.00;;;;;;5065052;28;20017;-88
2022/06/21 10:45:24;;;;;;;3.53;1.08;;;22.00;77.80;;;;;;5031435;28;20112;-89
2022/06/21 10:48:27;;;;;;;3.25;1.10;;;22.10;76.30;;;;;;5020137;28;20029;-89
2022/06/21 10:51:07;;;;;;;3.97;1.35;;;22.10;74.80;;;;;;5031569;28;20073;-88
2022/06/21 10:53:41;;;;;;;2.13;0.68;;;22.20;74.30;;;;;;5012927;28;20034;-90
2022/06/21 11:01:16;;;;;;;2.45;0.85;;;22.30;73.90;;;;;;5011927;28;20060;-88
2022/06/21 11:02:31;;;;;;;2.17;0.55;;;22.40;73.50;;;;;;5013649;28;20037;-90
2022/06/21 11:05:17;;;;;;;5.75;1.20;;;22.50;72.60;;;;;;5031063;22;20059;-85
2022/06/21 11:08:20;;;;;;;2.47;0.70;;;22.60;71.70;;;;;;5000386;28;20034;-83
2022/06/21 11:11:17;;;;;;;2.05;0.75;;;22.60;69.90;;;;;;4990037;28;20454;-82
2022/06/21 11:14:11;;;;;;;3.60;0.90;;;22.60;67.40;;;;;;4997316;28;20037;-85
2022/06/21 11:17:06;;;;;;;4.43;0.98;;;22.60;67.60;;;;;;4992391;28;20375;-85
2022/06/21 11:19:39;;;;;;;1.98;0.88;;;22.70;67.30;;;;;;5003468;28;20113;-85
2022/06/21 11:22:16;;;;;;;6.82;1.08;;;22.70;67.40;;;;;;4991107;28;20034;-85
2022/06/21 11:24:54;;;;;;;3.85;1.27;;;22.70;66.00;;;;;;4989897;28;20038;-85
2022/06/21 11:27:40;;;;;;;2.78;0.80;;;22.70;64.10;;;;;;4983104;28;20034;-83
2022/06/21 11:30:26;;;;;;;4.53;1.45;;;22.70;63.00;;;;;;4989885;28;20473;-83
2022/06/21 11:32:54;;;;;;;2.25;1.15;;;22.70;61.70;;;;;;5004771;28;20034;-82
2022/06/21 11:35:35;;;;;;;4.28;0.90;;;22.70;61.30;;;;;;4988638;28;20046;-83
2022/06/21 11:38:19;;;;;;;2.58;0.90;;;22.70;61.90;;;;;;5067965;28;20180;-85
2022/06/21 11:41:05;;;;;;;1.38;0.88;;;22.70;62.90;;;;;;5001854;28;20382;-83
2022/06/21 11:43:49;;;;;;;2.45;1.05;;;22.80;63.50;;;;;;4990255;28;20087;-85
2022/06/21 11:46:35;;;;;;;5.00;1.42;;;22.80;63.90;;;;;;4989527;28;20030;-82
2022/06/21 11:49:47;;;;;;;3.08;1.10;;;22.90;64.10;;;;;;4988438;28;20099;-83
2022/06/21 11:52:28;;;;;;;2.97;1.08;;;23.00;63.90;;;;;;4991358;28;20057;-82
2022/06/21 11:55:08;;;;;;;2.42;0.88;;;23.00;63.50;;;;;;4991110;28;20032;-83
2022/06/21 11:57:56;;;;;;;4.07;1.08;;;23.10;63.60;;;;;;4991020;28;20481;-83
2022/06/21 12:00:35;;;;;;;3.33;1.02;;;23.10;63.20;;;;;;4991140;28;20092;-83
2022/06/21 12:03:04;;;;;;;7.82;1.10;;;23.20;62.80;;;;;;4987785;28;20091;-83
2022/06/21 12:05:58;;;;;;;4.10;1.20;;;23.20;62.00;;;;;;4990914;28;20046;-82
2022/06/21 12:08:39;;;;;;;4.25;1.08;;;23.30;62.20;;;;;;4990659;28;20030;-83
2022/06/21 12:11:14;;;;;;;1.98;0.75;;;23.30;62.80;;;;;;4989833;28;20027;-82
2022/06/21 12:14:00;;;;;;;2.75;0.95;;;23.40;62.40;;;;;;4988945;28;20493;-82
2022/06/21 12:16:44;;;;;;;2.20;0.95;;;23.40;63.10;;;;;;5006160;28;20018;-83
2022/06/21 12:19:16;;;;;;;5.53;1.13;;;23.50;63.10;;;;;;4990704;28;20038;-83
2022/06/21 12:21:50;;;;;;;2.50;0.80;;;23.50;62.30;;;;;;4987459;28;20423;-84
2022/06/21 12:24:20;;;;;;;2.67;1.13;;;23.50;61.90;;;;;;4989784;28;20065;-84
2022/06/21 12:26:46;;;;;;;2.70;0.85;;;23.60;61.20;;;;;;4991155;28;20386;-84
2022/06/21 12:29:17;;;;;;;3.08;0.70;;;23.60;61.20;;;;;;4981652;28;20027;-83
2022/06/21 12:31:51;;;;;;;2.30;0.93;;;23.60;60.70;;;;;;4994013;28;20109;-85
2022/06/21 12:34:47;;;;;;;3.90;0.90;;;23.60;60.40;;;;;;5014187;28;20038;-84
2022/06/21 12:37:20;;;;;;;1.10;0.80;;;23.60;61.10;;;;;;5000393;28;20050;-85
2022/06/21 12:39:57;;;;;;;3.17;0.88;;;23.60;61.30;;;;;;5010792;28;20054;-85
2022/06/21 12:42:41;;;;;;;3.65;2.00;;;23.70;61.80;;;;;;5022715;28;20017;-85
2022/06/21 12:45:24;;;;;;;3.53;1.20;;;23.70;61.60;;;;;;5006126;28;20038;-85
2022/06/21 12:48:08;;;;;;;3.13;1.00;;;23.70;60.60;;;;;;5003386;28;20029;-86
2022/06/21 12:50:34;;;;;;;3.72;0.98;;;23.80;59.80;;;;;;5003723;28;20501;-85
2022/06/21 12:53:15;;;;;;;3.60;1.00;;;23.80;59.50;;;;;;4988863;28;20030;-84
2022/06/21 12:55:52;;;;;;;2.00;0.80;;;23.80;59.00;;;;;;4978479;28;20027;-85
2022/06/21 12:58:56;;;;;;;2.80;0.88;;;23.80;58.20;;;;;;5073754;28;20031;-85
2022/06/21 13:01:29;;;;;;;2.17;0.77;;;23.90;57.40;;;;;;4987619;28;20050;-85
2022/06/21 13:04:09;;;;;;;3.30;1.05;;;23.90;57.20;;;;;;4990198;28;20050;-85
2022/06/21 13:06:44;;;;;;;3.03;0.93;;;23.90;57.20;;;;;;4989052;28;20398;-85
2022/06/21 13:09:22;;;;;;;2.38;0.70;;;23.90;57.20;;;;;;4989259;28;20046;-85
2022/06/21 13:12:12;;;;;;;2.45;0.80;;;23.90;57.20;;;;;;4985188;28;20046;-85
2022/06/21 13:14:50;;;;;;;2.30;0.80;;;23.90;58.90;;;;;;4991029;28;20549;-85
2022/06/21 13:18:10;;;;;;;3.70;1.95;;;23.90;59.30;;;;;;4993469;28;20027;-85
2022/06/21 13:21:00;;;;;;;5.23;1.47;;;24.00;58.00;;;;;;5031990;28;20122;-84
2022/06/21 13:23:49;;;;;;;3.05;1.00;;;24.00;58.60;;;;;;4993771;28;20029;-85
2022/06/21 13:26:46;;;;;;;1.77;1.00;;;24.10;59.30;;;;;;5058042;28;20025;-85
2022/06/21 13:29:33;;;;;;;4.07;0.90;;;24.00;58.70;;;;;;4988605;28;20052;-85
2022/06/21 13:32:03;;;;;;;2.40;0.70;;;24.10;58.50;;;;;;4992071;28;20557;-85
2022/06/21 13:34:47;;;;;;;3.87;0.97;;;24.10;58.50;;;;;;5008220;28;20085;-85
2022/06/21 13:37:16;;;;;;;2.67;0.77;;;24.10;57.70;;;;;;4993463;28;20138;-83
2022/06/21 13:39:44;;;;;;;2.15;0.75;;;24.10;57.70;;;;;;4992146;28;20478;-83
2022/06/21 13:42:37;;;;;;;2.65;0.73;;;24.10;57.10;;;;;;4994051;28;20075;-83
2022/06/21 13:45:35;;;;;;;3.22;0.95;;;24.10;56.70;;;;;;4990329;28;20022;-84
2022/06/21 13:48:26;;;;;;;2.92;1.00;;;24.20;58.10;;;;;;5020790;28;20436;-83
2022/06/21 13:50:58;;;;;;;2.65;0.70;;;24.20;59.20;;;;;;4975910;28;20023;-84
2022/06/21 13:53:33;;;;;;;2.08;0.68;;;24.20;59.90;;;;;;4993822;28;20479;-83
2022/06/21 13:56:06;;;;;;;2.40;0.70;;;24.30;60.60;;;;;;5005391;28;20030;-82
2022/06/21 13:58:46;;;;;;;3.67;0.93;;;24.30;60.80;;;;;;4994460;28;20042;-83
2022/06/21 14:02:13;;;;;;;2.60;0.77;;;24.30;61.00;;;;;;5006196;28;20072;-83
2022/06/21 14:04:45;;;;;;;2.15;0.60;;;24.40;60.90;;;;;;4992152;28;20037;-83
2022/06/21 14:07:38;;;;;;;2.20;0.80;;;24.40;61.00;;;;;;4991985;28;20057;-83
2022/06/21 14:10:09;;;;;;;3.03;0.90;;;24.40;60.80;;;;;;5008643;28;20030;-84
2022/06/21 14:12:56;;;;;;;4.75;1.25;;;24.50;59.20;;;;;;5005047;28;20026;-84